createdAt,value
2018-05-10T00:00:38.273Z,50.44
2018-05-10T00:03:06.647Z,50.37
2018-05-10T00:05:35.119Z,49.83
2018-05-10T00:08:03.494Z,50.35
2018-05-10T00:10:31.909Z,50.40
2018-05-10T00:13:00.758Z,50.94
2018-05-10T00:15:29.114Z,51.60
2018-05-10T00:17:57.479Z,52.38
2018-05-10T00:20:25.850Z,51.68
2018-05-10T00:22:54.227Z,51.80
2018-05-10T00:25:22.781Z,52.15
2018-05-10T00:27:51.096Z,51.68
2018-05-10T00:30:19.580Z,51.38
2018-05-10T00:32:47.966Z,51.79
2018-05-10T00:35:16.343Z,52.10
2018-05-10T00:37:44.703Z,52.71
2018-05-10T00:40:13.072Z,52.75
2018-05-10T00:42:41.834Z,52.52
2018-05-10T00:45:10.211Z,52.23
2018-05-10T00:47:38.574Z,51.56
2018-05-10T00:50:06.934Z,50.98
2018-05-10T00:52:35.294Z,50.85
2018-05-10T00:55:03.657Z,51.72
2018-05-10T00:57:32.512Z,51.46
2018-05-10T01:00:00.890Z,51.25
2018-05-10T01:02:29.282Z,51.13
2018-05-10T01:04:57.752Z,51.17
2018-05-10T01:07:26.443Z,51.64
2018-05-10T01:09:54.920Z,51.29
2018-05-10T01:12:23.357Z,51.48
2018-05-10T01:14:51.712Z,51.11
2018-05-10T01:17:20.568Z,50.61
2018-05-10T01:19:48.936Z,51.30
2018-05-10T01:22:17.304Z,51.54
2018-05-10T01:24:45.691Z,51.64
2018-05-10T01:27:14.068Z,50.99
2018-05-10T01:29:42.443Z,50.38
2018-05-10T01:32:10.837Z,50.51
2018-05-10T01:34:39.196Z,51.77
2018-05-10T01:37:07.585Z,51.50
2018-05-10T01:39:35.950Z,50.82
2018-05-10T01:42:04.314Z,50.66
2018-05-10T01:44:32.699Z,51.69
2018-05-10T01:47:01.081Z,51.84
2018-05-10T01:49:29.469Z,52.03
2018-05-10T01:51:57.892Z,51.77
2018-05-10T01:54:27.408Z,52.28
2018-05-10T01:56:56.178Z,52.40
2018-05-10T01:59:24.630Z,52.33
2018-05-10T02:01:53.025Z,52.45
2018-05-10T02:04:21.408Z,52.08
2018-05-10T02:06:49.768Z,51.46
2018-05-10T02:09:18.130Z,52.26
2018-05-10T02:11:46.516Z,53.17
2018-05-10T02:14:14.908Z,53.94
2018-05-10T02:16:43.270Z,53.13
2018-05-10T02:19:11.634Z,52.76
2018-05-10T02:21:40.056Z,53.16
2018-05-10T02:24:08.440Z,53.25
2018-05-10T02:26:36.909Z,52.93
2018-05-10T02:29:05.271Z,53.35
2018-05-10T02:31:33.646Z,52.09
2018-05-10T02:34:02.022Z,52.10
2018-05-10T02:36:30.483Z,52.47
2018-05-10T02:38:58.904Z,53.41
2018-05-10T02:41:27.189Z,53.74
2018-05-10T02:43:55.565Z,53.46
2018-05-10T02:46:23.961Z,53.13
2018-05-10T02:48:52.411Z,52.22
2018-05-10T02:51:20.801Z,52.63
2018-05-10T02:53:49.162Z,51.86
2018-05-10T02:56:17.521Z,51.77
2018-05-10T02:58:45.887Z,51.84
2018-05-10T03:01:14.251Z,51.17
2018-05-10T03:03:43.039Z,51.75
2018-05-10T03:06:11.813Z,52.00
2018-05-10T03:08:40.198Z,50.54
2018-05-10T03:11:08.648Z,50.48
2018-05-10T03:13:37.019Z,50.41
2018-05-10T03:16:05.415Z,51.50
2018-05-10T03:18:33.790Z,50.82
2018-05-10T03:21:02.143Z,50.17
2018-05-10T03:23:30.646Z,50.27
2018-05-10T03:25:59.031Z,51.74
2018-05-10T03:28:27.500Z,51.49
2018-05-10T03:30:55.882Z,51.03
2018-05-10T03:33:24.349Z,50.21
2018-05-10T03:35:52.630Z,50.91
2018-05-10T03:38:20.990Z,51.17
2018-05-10T03:40:49.407Z,51.45
2018-05-10T03:43:17.768Z,51.37
2018-05-10T03:45:46.139Z,52.17
2018-05-10T03:48:14.508Z,51.54
2018-05-10T03:50:42.915Z,51.40
2018-05-10T03:53:11.307Z,51.81
2018-05-10T03:55:39.786Z,52.13
2018-05-10T03:58:08.145Z,52.32
2018-05-10T04:00:36.543Z,52.19
2018-05-10T04:06:50.323Z,51.75
2018-05-10T04:09:36.902Z,51.91
2018-05-10T04:12:05.285Z,52.20
2018-05-10T04:14:33.783Z,52.28
2018-05-10T04:17:02.146Z,52.15
2018-05-10T04:19:30.616Z,51.93
2018-05-10T04:21:58.985Z,52.12
2018-05-10T04:24:27.363Z,52.76
2018-05-10T04:26:56.380Z,52.91
2018-05-10T04:29:24.760Z,52.29
2018-05-10T04:31:53.226Z,52.22
2018-05-10T04:34:21.615Z,52.70
2018-05-10T04:36:50.015Z,52.52
2018-05-10T04:39:18.374Z,51.64
2018-05-10T04:41:46.735Z,51.54
2018-05-10T04:44:15.115Z,51.73
2018-05-10T04:46:43.475Z,52.26
2018-05-10T04:49:11.878Z,51.97
2018-05-10T04:51:40.253Z,50.77
2018-05-10T04:54:08.615Z,50.06
2018-05-10T04:56:36.983Z,49.46
2018-05-10T04:59:05.389Z,50.43
2018-05-10T05:01:33.886Z,50.07
2018-05-10T05:04:02.590Z,49.46
2018-05-10T05:06:31.047Z,50.30
2018-05-10T05:08:59.492Z,49.83
2018-05-10T05:11:27.829Z,50.94
2018-05-10T05:13:56.230Z,50.18
2018-05-10T05:16:25.033Z,49.93
2018-05-10T05:18:53.412Z,50.72
2018-05-10T05:21:21.794Z,51.12
2018-05-10T05:23:50.142Z,50.02
2018-05-10T05:26:20.035Z,50.50
2018-05-10T05:28:48.403Z,49.90
2018-05-10T05:31:16.850Z,49.18
2018-05-10T05:33:45.332Z,48.81
2018-05-10T05:36:13.721Z,48.74
2018-05-10T05:38:42.113Z,47.97
2018-05-10T05:41:10.588Z,48.57
2018-05-10T05:43:39.314Z,47.11
2018-05-10T05:46:07.679Z,46.38
2018-05-10T05:48:36.195Z,45.80
2018-05-10T05:51:04.963Z,46.83
2018-05-10T05:53:33.318Z,46.40
2018-05-10T05:56:01.715Z,47.23
2018-05-10T05:58:30.099Z,45.49
2018-05-10T06:00:58.459Z,45.17
2018-05-10T06:03:26.995Z,44.66
2018-05-10T06:05:55.358Z,44.57
2018-05-10T06:08:24.109Z,44.80
2018-05-10T06:10:52.479Z,46.52
2018-05-10T06:13:20.866Z,47.03
2018-05-10T06:15:49.344Z,47.09
2018-05-10T06:18:17.699Z,46.61
2018-05-10T06:20:46.074Z,45.78
2018-05-10T06:23:14.442Z,45.10
2018-05-10T06:25:42.866Z,44.18
2018-05-10T06:28:11.337Z,43.30
2018-05-10T06:30:39.701Z,43.41
2018-05-10T06:33:08.091Z,43.31
2018-05-10T06:35:36.461Z,43.54
2018-05-10T06:38:04.821Z,43.09
2018-05-10T06:40:33.300Z,44.39
2018-05-10T06:43:01.702Z,44.20
2018-05-10T06:45:30.170Z,44.32
2018-05-10T06:47:58.562Z,44.22
2018-05-10T06:50:26.923Z,43.51
2018-05-10T06:52:55.366Z,42.20
2018-05-10T06:55:24.868Z,41.65
2018-05-10T06:57:53.635Z,41.99
2018-05-10T07:00:21.998Z,42.73
2018-05-10T07:02:50.598Z,42.49
2018-05-10T07:05:18.967Z,41.58
2018-05-10T07:07:47.330Z,40.55
2018-05-10T07:10:15.700Z,39.69
2018-05-10T07:12:44.077Z,38.63
2018-05-10T07:15:12.461Z,38.56
2018-05-10T07:17:40.829Z,38.47
2018-05-10T07:20:09.237Z,38.42
2018-05-10T07:22:37.718Z,37.49
2018-05-10T07:25:06.304Z,36.80
2018-05-10T07:27:34.614Z,36.39
2018-05-10T07:30:03.474Z,36.17
2018-05-10T07:32:31.831Z,35.91
2018-05-10T07:35:00.222Z,34.90
2018-05-10T07:37:28.611Z,33.32
2018-05-10T07:39:56.989Z,32.12
2018-05-10T07:42:25.355Z,28.82
2018-05-10T07:44:53.732Z,26.20
2018-05-10T07:47:22.397Z,25.38
2018-05-10T07:49:50.726Z,25.39
2018-05-10T07:52:19.089Z,25.86
2018-05-10T07:54:47.464Z,25.94
2018-05-10T07:57:15.856Z,25.14
2018-05-10T07:59:44.237Z,24.79
2018-05-10T08:02:12.724Z,25.18
2018-05-10T08:04:41.064Z,23.71
2018-05-10T08:07:09.547Z,21.54
2018-05-10T08:09:37.908Z,20.03
2018-05-10T08:12:06.293Z,19.67
2018-05-10T08:14:34.723Z,19.53
2018-05-10T08:17:03.226Z,18.84
2018-05-10T08:19:31.557Z,17.87
2018-05-10T08:21:59.935Z,17.18
2018-05-10T08:24:28.319Z,16.86
2018-05-10T08:26:56.797Z,15.13
2018-05-10T08:29:33.050Z,15.05
2018-05-10T08:32:01.444Z,14.31
2018-05-10T08:34:29.848Z,14.81
2018-05-10T08:36:58.639Z,14.87
2018-05-10T08:39:27.033Z,14.43
2018-05-10T08:41:55.453Z,13.98
2018-05-10T08:44:23.837Z,14.66
2018-05-10T08:46:52.235Z,14.21
2018-05-10T08:49:21.122Z,13.95
2018-05-10T08:51:49.617Z,14.35
2018-05-10T08:54:18.291Z,14.81
2018-05-10T08:56:47.174Z,15.25
2018-05-10T08:59:15.559Z,15.32
2018-05-10T09:01:43.967Z,14.66
2018-05-10T09:04:12.437Z,14.08
2018-05-10T09:06:41.243Z,14.60
2018-05-10T09:09:10.126Z,15.06
2018-05-10T09:11:38.646Z,15.76
2018-05-10T09:14:07.058Z,15.45
2018-05-10T09:16:35.449Z,15.36
2018-05-10T09:19:03.826Z,14.70
2018-05-10T09:21:32.208Z,14.11
2018-05-10T09:24:01.088Z,14.23
2018-05-10T09:26:29.466Z,13.91
2018-05-10T09:28:57.851Z,13.15
2018-05-10T09:31:26.679Z,13.70
2018-05-10T09:33:55.172Z,13.09
2018-05-10T09:36:23.982Z,13.01
2018-05-10T09:38:52.385Z,14.13
2018-05-10T09:41:20.778Z,14.23
2018-05-10T09:43:49.660Z,14.98
2018-05-10T09:46:18.452Z,14.78
2018-05-10T09:48:46.825Z,15.50
2018-05-10T09:51:15.222Z,15.07
2018-05-10T09:53:44.036Z,16.28
2018-05-10T09:56:12.442Z,16.09
2018-05-10T09:58:40.857Z,15.06
2018-05-10T10:01:09.242Z,14.75
2018-05-10T10:03:38.084Z,14.02
2018-05-10T10:06:06.548Z,14.15
2018-05-10T10:08:35.480Z,14.64
2018-05-10T10:11:04.042Z,15.72
2018-05-10T10:13:32.386Z,16.40
2018-05-10T10:16:00.852Z,16.28
2018-05-10T10:18:29.207Z,15.84
2018-05-10T10:20:57.602Z,15.88
2018-05-10T10:23:25.966Z,15.72
2018-05-10T10:25:54.319Z,16.35
2018-05-10T10:28:22.682Z,16.99
2018-05-10T10:30:51.047Z,17.91
2018-05-10T10:33:19.886Z,17.75
2018-05-10T10:35:48.259Z,17.65
2018-05-10T10:38:16.719Z,17.74
2018-05-10T10:40:45.002Z,17.15
2018-05-10T10:43:13.358Z,17.93
2018-05-10T10:45:41.790Z,18.36
2018-05-10T10:48:10.159Z,18.42
2018-05-10T10:50:38.517Z,19.18
2018-05-10T10:53:06.919Z,18.32
2018-05-10T10:55:35.313Z,18.72
2018-05-10T10:58:03.674Z,19.45
2018-05-10T11:00:32.028Z,20.49
2018-05-10T11:03:00.426Z,20.49
2018-05-10T11:05:28.796Z,20.64
2018-05-10T11:07:57.174Z,21.35
2018-05-10T11:10:25.533Z,22.42
2018-05-10T11:12:53.910Z,22.94
2018-05-10T11:15:22.276Z,22.44
2018-05-10T11:17:51.147Z,21.39
2018-05-10T11:20:19.563Z,21.09
2018-05-10T11:22:48.051Z,21.33
2018-05-10T11:25:16.419Z,22.38
2018-05-10T11:27:44.800Z,23.13
2018-05-10T11:30:13.221Z,22.42
2018-05-10T11:32:41.580Z,22.79
2018-05-10T11:35:10.285Z,23.29
2018-05-10T11:37:38.667Z,23.61
2018-05-10T11:40:07.075Z,23.39
2018-05-10T11:42:35.443Z,23.63
2018-05-10T11:45:03.806Z,23.91
2018-05-10T11:47:32.174Z,24.48
2018-05-10T11:50:00.539Z,25.06
2018-05-10T11:52:28.999Z,25.12
2018-05-10T11:54:57.357Z,25.18
2018-05-10T11:57:26.153Z,24.54
2018-05-10T11:59:54.544Z,24.79
2018-05-10T12:02:22.911Z,25.08
2018-05-10T12:04:51.750Z,25.14
2018-05-10T12:07:20.122Z,24.69
2018-05-10T12:09:48.504Z,24.85
2018-05-10T12:12:16.883Z,25.98
2018-05-10T12:14:45.259Z,25.81
2018-05-10T12:17:13.624Z,26.17
2018-05-10T12:19:42.037Z,25.21
2018-05-10T12:22:10.428Z,24.67
2018-05-10T12:24:39.240Z,24.63
2018-05-10T12:27:08.022Z,25.08
2018-05-10T12:29:36.865Z,25.14
2018-05-10T12:32:05.269Z,25.06
2018-05-10T12:34:34.108Z,24.44
2018-05-10T12:37:02.479Z,23.35
2018-05-10T12:39:30.871Z,23.08
2018-05-10T12:41:59.246Z,23.93
2018-05-10T12:44:27.666Z,24.69
2018-05-10T12:46:56.036Z,23.98
2018-05-10T12:49:24.397Z,23.48
2018-05-10T12:51:52.810Z,23.96
2018-05-10T12:54:21.225Z,24.67
2018-05-10T12:56:49.643Z,24.46
2018-05-10T12:59:18.031Z,24.74
2018-05-10T13:01:46.396Z,24.38
2018-05-10T13:04:14.758Z,24.33
2018-05-10T13:06:43.450Z,24.04
2018-05-10T13:09:11.751Z,23.39
2018-05-10T13:11:40.272Z,23.86
2018-05-10T13:14:09.030Z,23.29
2018-05-10T13:16:37.402Z,23.13
2018-05-10T13:19:05.771Z,22.85
2018-05-10T13:21:34.143Z,23.70
2018-05-10T13:24:02.563Z,23.86
2018-05-10T13:26:31.418Z,23.85
2018-05-10T13:29:00.538Z,23.70
2018-05-10T13:31:29.258Z,24.36
2018-05-10T13:33:58.016Z,23.94
2018-05-10T13:36:26.383Z,23.69
2018-05-10T13:38:54.774Z,24.20
2018-05-10T13:41:23.833Z,24.21
2018-05-10T13:43:52.196Z,25.33
2018-05-10T13:46:20.700Z,24.80
2018-05-10T13:48:49.178Z,24.66
2018-05-10T13:51:17.540Z,24.77
2018-05-10T13:53:46.219Z,24.69
2018-05-10T13:56:14.605Z,24.58
2018-05-10T13:58:43.683Z,24.50
2018-05-10T14:01:12.398Z,25.55
2018-05-10T14:03:40.794Z,26.39
2018-05-10T14:06:09.173Z,25.30
2018-05-10T14:08:37.543Z,24.77
2018-05-10T14:11:06.008Z,25.21
2018-05-10T14:13:34.361Z,25.07
2018-05-10T14:16:02.792Z,24.64
2018-05-10T14:18:31.170Z,24.17
2018-05-10T14:20:59.563Z,23.78
2018-05-10T14:23:28.024Z,23.46
2018-05-10T14:25:56.428Z,23.76
2018-05-10T14:28:24.950Z,24.07
2018-05-10T14:30:53.370Z,24.02
2018-05-10T14:33:21.795Z,24.29
2018-05-10T14:35:50.159Z,24.08
2018-05-10T14:38:19.048Z,23.66
2018-05-10T14:40:47.424Z,23.67
2018-05-10T14:43:15.850Z,23.44
2018-05-10T14:45:44.234Z,24.07
2018-05-10T14:48:12.647Z,23.65
2018-05-10T14:50:41.035Z,23.26
2018-05-10T14:53:09.495Z,22.30
2018-05-10T14:55:38.015Z,22.24
2018-05-10T14:58:06.811Z,22.33
2018-05-10T15:00:35.693Z,22.26
2018-05-10T15:03:04.473Z,22.50
2018-05-10T15:05:32.934Z,22.04
2018-05-10T15:08:01.332Z,22.87
2018-05-10T15:10:29.726Z,22.95
2018-05-10T15:12:58.495Z,22.87
2018-05-10T15:15:26.860Z,23.08
2018-05-10T15:17:55.229Z,23.56
2018-05-10T15:20:23.754Z,23.65
2018-05-10T15:22:52.519Z,23.71
2018-05-10T15:25:20.888Z,23.83
2018-05-10T15:27:49.273Z,23.43
2018-05-10T15:30:17.746Z,23.03
2018-05-10T15:32:46.158Z,24.39
2018-05-10T15:35:14.935Z,23.58
2018-05-10T15:37:43.861Z,22.88
2018-05-10T15:40:12.246Z,26.91
2018-05-10T15:42:40.638Z,35.08
2018-05-10T15:45:09.020Z,47.06
2018-05-10T15:47:37.383Z,52.34
2018-05-10T15:50:05.745Z,55.71
2018-05-10T15:52:34.299Z,55.35
2018-05-10T15:55:02.684Z,59.12
2018-05-10T15:57:31.554Z,58.92
2018-05-10T15:59:59.937Z,59.25
2018-05-10T16:02:28.317Z,60.99
2018-05-10T16:04:56.728Z,59.78
2018-05-10T16:07:25.524Z,59.98
2018-05-10T16:09:53.963Z,60.17
2018-05-10T16:12:22.474Z,59.89
2018-05-10T16:14:51.219Z,57.13
2018-05-10T16:17:19.603Z,58.90
2018-05-10T16:19:47.981Z,57.23
2018-05-10T16:22:16.348Z,54.89
2018-05-10T16:24:44.756Z,54.74
2018-05-10T16:27:13.178Z,54.02
2018-05-10T16:29:41.564Z,51.59
2018-05-10T16:32:09.935Z,50.27
2018-05-10T16:34:38.311Z,46.20
2018-05-10T16:37:06.688Z,47.34
2018-05-10T16:39:35.085Z,43.87
2018-05-10T16:42:03.569Z,43.09
2018-05-10T16:44:31.981Z,41.89
2018-05-10T16:47:00.477Z,40.46
2018-05-10T16:49:28.891Z,39.19
2018-05-10T16:51:57.264Z,39.38
2018-05-10T16:54:25.632Z,38.36
2018-05-10T16:56:54.414Z,38.38
2018-05-10T16:59:23.179Z,38.32
2018-05-10T17:01:51.610Z,38.43
2018-05-10T17:04:20.247Z,37.15
2018-05-10T17:09:43.968Z,36.24
2018-05-10T17:12:12.730Z,36.27
2018-05-10T17:14:41.107Z,37.05
2018-05-10T17:17:09.658Z,37.53
2018-05-10T17:19:38.015Z,37.34
2018-05-10T17:22:06.837Z,36.90
2018-05-10T17:24:35.199Z,36.46
2018-05-10T17:27:03.565Z,37.10
2018-05-10T17:29:31.926Z,38.84
2018-05-10T17:32:00.686Z,39.95
2018-05-10T17:34:29.030Z,40.47
2018-05-10T17:36:57.413Z,40.30
2018-05-10T17:39:25.851Z,39.80
2018-05-10T17:41:54.590Z,38.62
2018-05-10T17:44:22.945Z,36.71
2018-05-10T17:46:51.288Z,36.73
2018-05-10T17:49:20.059Z,36.20
2018-05-10T17:51:48.397Z,37.42
2018-05-10T17:54:16.758Z,37.07
2018-05-10T17:56:45.157Z,34.47
2018-05-10T17:59:13.518Z,35.95
2018-05-10T18:01:41.887Z,36.07
2018-05-10T18:04:10.244Z,36.64
2018-05-10T18:06:39.082Z,37.55
2018-05-10T18:09:07.463Z,37.62
2018-05-10T18:11:35.828Z,42.84
2018-05-10T18:14:04.203Z,48.87
2018-05-10T18:16:32.594Z,50.71
2018-05-10T18:19:00.969Z,51.70
2018-05-10T18:21:29.343Z,53.27
2018-05-10T18:23:57.766Z,54.46
2018-05-10T18:26:26.134Z,55.52
2018-05-10T18:28:54.554Z,57.51
2018-05-10T18:31:23.402Z,58.51
2018-05-10T18:33:51.762Z,59.04
2018-05-10T18:36:20.137Z,60.23
2018-05-10T18:38:48.489Z,61.27
2018-05-10T18:41:16.871Z,61.76
2018-05-10T18:43:45.222Z,60.89
2018-05-10T18:46:13.978Z,61.44
2018-05-10T18:48:42.338Z,61.69
2018-05-10T18:51:10.698Z,60.17
2018-05-10T18:53:39.078Z,60.35
2018-05-10T18:56:07.482Z,61.25
2018-05-10T18:58:35.849Z,60.75
2018-05-10T19:01:04.213Z,60.94
2018-05-10T19:03:32.700Z,60.29
2018-05-10T19:06:01.177Z,60.47
2018-05-10T19:08:29.568Z,59.58
2018-05-10T19:10:57.926Z,60.06
2018-05-10T19:13:26.326Z,60.42
2018-05-10T19:15:54.690Z,59.86
2018-05-10T19:18:23.071Z,59.65
2018-05-10T19:20:51.503Z,59.36
2018-05-10T19:23:19.847Z,58.06
2018-05-10T19:25:48.206Z,58.00
2018-05-10T19:28:16.566Z,58.19
2018-05-10T19:30:44.929Z,57.81
2018-05-10T19:33:13.781Z,57.94
2018-05-10T19:35:42.137Z,58.53
2018-05-10T19:38:10.534Z,59.46
2018-05-10T19:40:38.993Z,59.24
2018-05-10T19:43:07.395Z,58.52
2018-05-10T19:45:35.761Z,58.84
2018-05-10T19:48:04.153Z,58.43
2018-05-10T19:50:32.530Z,58.95
2018-05-10T19:53:00.890Z,58.97
2018-05-10T19:55:29.240Z,58.42
2018-05-10T19:57:57.991Z,57.80
2018-05-10T20:00:26.349Z,57.97
2018-05-10T20:02:54.755Z,56.64
2018-05-10T20:05:23.211Z,56.54
2018-05-10T20:07:51.581Z,56.23
2018-05-10T20:10:19.974Z,56.82
2018-05-10T20:12:48.554Z,57.86
2018-05-10T20:15:16.919Z,58.40
2018-05-10T20:17:45.298Z,57.84
2018-05-10T20:20:13.710Z,57.92
2018-05-10T20:22:42.065Z,58.58
2018-05-10T20:25:10.505Z,58.72
2018-05-10T20:27:39.259Z,59.19
2018-05-10T20:30:07.630Z,58.56
2018-05-10T20:32:35.998Z,57.11
2018-05-10T20:35:04.353Z,56.62
2018-05-10T20:37:32.727Z,55.98
2018-05-10T20:40:01.091Z,55.52
2018-05-10T20:42:29.478Z,55.41
2018-05-10T20:44:57.838Z,55.63
2018-05-10T20:47:26.602Z,55.86
2018-05-10T20:49:54.966Z,55.62
2018-05-10T20:52:23.320Z,55.70
2018-05-10T20:54:51.702Z,55.44
2018-05-10T20:57:20.073Z,55.58
2018-05-10T20:59:48.470Z,56.14
2018-05-10T21:02:16.834Z,56.53
2018-05-10T21:04:45.223Z,57.13
2018-05-10T21:07:13.622Z,57.40
2018-05-10T21:09:42.000Z,58.05
2018-05-10T21:12:10.369Z,57.30
2018-05-10T21:14:38.747Z,57.20
2018-05-10T21:17:07.143Z,56.98
2018-05-10T21:19:35.531Z,57.02
2018-05-10T21:22:03.889Z,57.15
2018-05-10T21:24:32.905Z,57.05
2018-05-10T21:27:01.275Z,57.23
2018-05-10T21:29:29.716Z,56.72
2018-05-10T21:31:58.095Z,56.95
2018-05-10T21:34:26.494Z,57.15
2018-05-10T21:36:54.862Z,57.14
2018-05-10T21:39:23.255Z,57.95
2018-05-10T21:41:51.627Z,57.40
2018-05-10T21:44:20.118Z,57.69
2018-05-10T21:46:48.499Z,58.13
2018-05-10T21:49:34.695Z,57.60
2018-05-10T21:52:03.174Z,59.41
2018-05-10T21:54:31.648Z,59.24
2018-05-10T21:57:00.019Z,58.52
2018-05-10T21:59:28.380Z,58.97
2018-05-10T22:01:56.759Z,58.71
2018-05-10T22:04:25.114Z,58.85
2018-05-10T22:06:53.490Z,58.02
2018-05-10T22:09:22.444Z,58.39
2018-05-10T22:11:50.794Z,58.08
2018-05-10T22:14:19.255Z,58.99
2018-05-10T22:16:47.617Z,59.14
2018-05-10T22:19:16.375Z,58.80
2018-05-10T22:21:44.942Z,58.80
2018-05-10T22:24:13.441Z,59.08
2018-05-10T22:26:41.901Z,59.14
2018-05-10T22:29:10.262Z,59.40
2018-05-10T22:31:38.622Z,59.85
2018-05-10T22:34:06.990Z,60.17
2018-05-10T22:36:35.842Z,61.22
2018-05-10T22:39:06.795Z,60.24
2018-05-10T22:41:35.146Z,59.65
2018-05-10T22:44:03.529Z,59.80
2018-05-10T22:46:31.921Z,59.12
2018-05-10T22:49:00.274Z,60.28
2018-05-10T22:51:28.670Z,59.70
2018-05-10T22:53:57.047Z,59.37
2018-05-10T22:56:25.403Z,59.91
2018-05-10T22:58:53.799Z,59.79
2018-05-10T23:01:22.162Z,59.71
2018-05-10T23:03:50.542Z,60.32
2018-05-10T23:06:18.954Z,61.16
2018-05-10T23:08:47.319Z,60.97
2018-05-10T23:11:15.674Z,60.19
2018-05-10T23:13:44.055Z,60.39
2018-05-10T23:16:12.437Z,60.31
2018-05-10T23:18:40.806Z,60.81
2018-05-10T23:21:09.169Z,61.03
2018-05-10T23:23:37.534Z,60.41
2018-05-10T23:26:06.282Z,59.38
2018-05-10T23:28:34.662Z,59.41
2018-05-10T23:31:03.023Z,59.68
2018-05-10T23:33:31.412Z,59.58
2018-05-10T23:35:59.998Z,59.96
2018-05-10T23:38:28.353Z,60.46
2018-05-10T23:40:56.751Z,60.37
2018-05-10T23:43:25.138Z,60.15
2018-05-10T23:45:53.645Z,60.72
2018-05-10T23:48:22.010Z,60.43
2018-05-10T23:50:50.362Z,60.08
2018-05-10T23:53:18.744Z,60.36
2018-05-10T23:55:47.225Z,61.01
2018-05-10T23:58:15.574Z,60.60
